NPT weather

Newport State Airport
Newport, Rhode Island, United States

Public forecast

Using degrees Fahrenheit for public forecast. Weather courtesy of forecast.io.

METAR (pilot weather report)

Retrieved 2019/07/20 03:53 UTC (58 minutes ago):

KUUU 200353Z AUTO 20004KT 4SM BR CLR 24/23 A2982 RMK AO2 SLP094 T02390233 $

TAF (pilot weather forecast)

Forecast is more than 12 hours old.

Closest forecast is Theodore Francis Green State Airport, 13.5 nm (25.1 km) NNW. Retrieved 2019/07/19 00:33 UTC (1 day ago):

TAF KPVD 192328Z 2000/2024 22008KT P6SM FEW060 FM200300 24006KT P6SM FEW060 FM201400 28006KT P6SM FEW060 FM201800 25010KT P6SM SCT045 FM202100 23009KT P6SM FEW045